Time;durP1;ratioP1;P1;durP2;ratioP2;P2;SDS_P1;SDS_P2;PMS_P1;PMS_P2;Temp;Humidity;BMP_temperature;BMP_pressure;BME280_temperature;BME280_humidity;BME280_pressure;Samples;Min_cycle;Max_cycle;Signal;HPM_P1;HPM_P2
2022/09/29 00:00:43;;;;;;;9.23;4.82;;;;;;;;;;5012975;28;20495;-50
2022/09/29 00:03:11;;;;;;;10.00;5.18;;;;;;;;;;5013024;28;20045;-50
2022/09/29 00:05:37;;;;;;;9.55;5.32;;;;;;;;;;5012026;28;20059;-54
2022/09/29 00:08:04;;;;;;;10.18;4.90;;;;;;;;;;5012819;28;20052;-53
2022/09/29 00:10:33;;;;;;;9.88;5.38;;;;;;;;;;5012073;28;20466;-51
2022/09/29 00:13:01;;;;;;;9.98;5.70;;;;;;;;;;5013352;28;20069;-53
2022/09/29 00:15:27;;;;;;;10.32;5.22;;;;;;;;;;5012212;28;20467;-52
2022/09/29 00:17:54;;;;;;;9.63;4.63;;;;;;;;;;5012914;28;20144;-54
2022/09/29 00:20:20;;;;;;;7.65;4.25;;;;;;;;;;5011786;28;20045;-53
2022/09/29 00:22:49;;;;;;;7.20;3.60;;;;;;;;;;5012335;28;20046;-53
2022/09/29 00:25:16;;;;;;;5.25;3.22;;;;;;;;;;5012183;28;20046;-53
2022/09/29 00:27:42;;;;;;;6.63;3.47;;;;;;;;;;5012868;28;20140;-54
2022/09/29 00:30:10;;;;;;;6.15;3.20;;;;;;;;;;5012720;28;20054;-54
2022/09/29 00:32:37;;;;;;;5.47;3.17;;;;;;;;;;5006509;28;20057;-53
2022/09/29 00:35:03;;;;;;;5.55;3.20;;;;;;;;;;5003727;28;20072;-53
2022/09/29 00:37:30;;;;;;;5.43;3.00;;;;;;;;;;4998445;28;20042;-53
2022/09/29 00:39:57;;;;;;;6.72;3.63;;;;;;;;;;5010653;28;20050;-54
2022/09/29 00:42:23;;;;;;;5.55;3.05;;;;;;;;;;5015749;28;20062;-52
2022/09/29 00:44:55;;;;;;;6.43;3.08;;;;;;;;;;5015823;28;20053;-54
2022/09/29 00:47:24;;;;;;;5.43;2.67;;;;;;;;;;5015700;28;20061;-54
2022/09/29 00:49:54;;;;;;;4.07;2.60;;;;;;;;;;5015192;28;20445;-53
2022/09/29 00:52:22;;;;;;;6.28;3.10;;;;;;;;;;5015160;28;20045;-54
2022/09/29 00:54:50;;;;;;;4.40;2.33;;;;;;;;;;5002357;28;20064;-52
2022/09/29 00:57:19;;;;;;;5.43;2.28;;;;;;;;;;5010155;28;20077;-54
2022/09/29 00:59:48;;;;;;;4.90;2.55;;;;;;;;;;5008845;28;20060;-54
2022/09/29 01:02:16;;;;;;;4.57;2.40;;;;;;;;;;5015398;28;20081;-54
2022/09/29 01:04:44;;;;;;;4.32;2.10;;;;;;;;;;5016414;28;20050;-54
2022/09/29 01:07:10;;;;;;;4.00;2.17;;;;;;;;;;5015331;28;20050;-52
2022/09/29 01:09:38;;;;;;;3.78;2.30;;;;;;;;;;5016166;28;20048;-52
2022/09/29 01:12:05;;;;;;;3.17;1.77;;;;;;;;;;5015336;28;20085;-53
2022/09/29 01:14:33;;;;;;;3.50;2.30;;;;;;;;;;5016410;28;20054;-51
2022/09/29 01:17:00;;;;;;;3.30;1.90;;;;;;;;;;5012902;28;20053;-54
2022/09/29 01:19:30;;;;;;;6.60;2.38;;;;;;;;;;5010086;28;20049;-54
2022/09/29 01:22:02;;;;;;;3.25;2.08;;;;;;;;;;5015093;28;20057;-54
2022/09/29 01:24:39;;;;;;;4.28;2.10;;;;;;;;;;5016084;28;20156;-53
2022/09/29 01:27:13;;;;;;;3.05;1.90;;;;;;;;;;5012492;28;20378;-53
2022/09/29 01:30:03;;;;;;;4.15;2.10;;;;;;;;;;5016065;28;20056;-54
2022/09/29 01:32:39;;;;;;;3.25;2.08;;;;;;;;;;5004964;28;20045;-53
2022/09/29 01:35:09;;;;;;;3.88;2.08;;;;;;;;;;5008417;28;20042;-54
2022/09/29 01:37:40;;;;;;;2.92;1.98;;;;;;;;;;5014697;28;20410;-54
2022/09/29 01:40:11;;;;;;;4.85;2.08;;;;;;;;;;5001056;28;20060;-52
2022/09/29 01:42:41;;;;;;;3.00;2.10;;;;;;;;;;5015358;28;20056;-54
2022/09/29 01:45:12;;;;;;;4.35;2.42;;;;;;;;;;5014562;28;20055;-52
2022/09/29 01:47:41;;;;;;;5.03;1.90;;;;;;;;;;5012896;28;20069;-54
2022/09/29 01:50:12;;;;;;;4.75;2.20;;;;;;;;;;5013302;28;20050;-51
2022/09/29 01:52:42;;;;;;;3.38;2.05;;;;;;;;;;5012334;28;20625;-51
2022/09/29 01:55:12;;;;;;;3.63;1.90;;;;;;;;;;5014274;28;20459;-53
2022/09/29 01:57:42;;;;;;;3.03;2.05;;;;;;;;;;5014517;28;20058;-54
2022/09/29 02:00:11;;;;;;;5.28;2.90;;;;;;;;;;5015093;28;20050;-53
2022/09/29 02:02:40;;;;;;;4.80;2.70;;;;;;;;;;5002713;28;20054;-53
2022/09/29 02:05:11;;;;;;;3.78;2.30;;;;;;;;;;5001849;28;20057;-53
2022/09/29 02:07:39;;;;;;;5.50;2.88;;;;;;;;;;4997570;28;20065;-53
2022/09/29 02:10:12;;;;;;;3.40;2.33;;;;;;;;;;5003746;28;20141;-54
2022/09/29 02:12:39;;;;;;;5.70;2.83;;;;;;;;;;5014478;28;20077;-53
2022/09/29 02:15:08;;;;;;;4.45;2.60;;;;;;;;;;5014713;28;20056;-54
2022/09/29 02:17:36;;;;;;;3.63;2.40;;;;;;;;;;4998546;28;20149;-52
2022/09/29 02:20:03;;;;;;;8.40;3.28;;;;;;;;;;4996591;28;20064;-53
2022/09/29 02:22:31;;;;;;;3.63;2.40;;;;;;;;;;4998683;28;20378;-54
2022/09/29 02:24:59;;;;;;;3.22;2.10;;;;;;;;;;5014817;28;20060;-50
2022/09/29 02:27:28;;;;;;;5.93;2.58;;;;;;;;;;5014475;28;20152;-50
2022/09/29 02:29:55;;;;;;;4.28;2.63;;;;;;;;;;5014933;28;20211;-53
2022/09/29 02:32:22;;;;;;;4.18;2.42;;;;;;;;;;5014052;28;20081;-53
2022/09/29 02:34:50;;;;;;;4.57;2.50;;;;;;;;;;4994989;28;20386;-51
2022/09/29 02:37:22;;;;;;;3.30;2.60;;;;;;;;;;5010229;28;20054;-54
2022/09/29 02:39:57;;;;;;;5.68;2.80;;;;;;;;;;5013738;28;20056;-53
2022/09/29 02:42:28;;;;;;;3.97;2.35;;;;;;;;;;5002571;28;20470;-52
2022/09/29 02:45:00;;;;;;;3.50;2.17;;;;;;;;;;4998769;28;20502;-54
2022/09/29 02:47:37;;;;;;;4.85;2.78;;;;;;;;;;5013595;28;20057;-52
2022/09/29 02:50:20;;;;;;;5.38;2.58;;;;;;;;;;5000746;28;20432;-54
2022/09/29 02:52:54;;;;;;;3.60;2.47;;;;;;;;;;5012578;28;20056;-53
2022/09/29 02:55:26;;;;;;;3.28;2.25;;;;;;;;;;5012908;28;20041;-54
2022/09/29 02:57:56;;;;;;;5.45;2.28;;;;;;;;;;5012658;28;20149;-52
2022/09/29 03:00:26;;;;;;;4.30;2.28;;;;;;;;;;5002699;28;20054;-53
2022/09/29 03:02:54;;;;;;;2.83;2.30;;;;;;;;;;4997045;28;20344;-53
2022/09/29 03:05:22;;;;;;;3.63;2.30;;;;;;;;;;5009422;28;20530;-53
2022/09/29 03:07:49;;;;;;;3.45;2.65;;;;;;;;;;5012444;28;20103;-51
2022/09/29 03:10:20;;;;;;;3.85;1.85;;;;;;;;;;5013655;28;20050;-53
2022/09/29 03:12:49;;;;;;;3.33;2.22;;;;;;;;;;5013372;28;20049;-53
2022/09/29 03:15:17;;;;;;;3.35;1.90;;;;;;;;;;5013377;28;20046;-51
2022/09/29 03:17:45;;;;;;;4.03;2.28;;;;;;;;;;5012883;28;20513;-53
2022/09/29 03:20:13;;;;;;;3.38;2.50;;;;;;;;;;5007519;28;20132;-51
2022/09/29 03:22:41;;;;;;;3.75;2.15;;;;;;;;;;4993714;28;20050;-51
2022/09/29 03:25:11;;;;;;;5.93;2.92;;;;;;;;;;5010604;28;20156;-51
2022/09/29 03:27:39;;;;;;;17.13;8.93;;;;;;;;;;5004158;28;20534;-52
2022/09/29 03:30:09;;;;;;;21.95;9.27;;;;;;;;;;5000887;28;20050;-53
2022/09/29 03:32:36;;;;;;;19.92;7.90;;;;;;;;;;4999816;28;20046;-53
2022/09/29 03:35:04;;;;;;;19.75;6.72;;;;;;;;;;5004368;28;20046;-53
2022/09/29 03:37:34;;;;;;;14.48;5.72;;;;;;;;;;5004905;28;20050;-53
2022/09/29 03:40:02;;;;;;;6.90;3.53;;;;;;;;;;5006536;28;20053;-53
2022/09/29 03:42:31;;;;;;;7.22;3.88;;;;;;;;;;5006031;28;20060;-52
2022/09/29 03:44:58;;;;;;;5.65;3.17;;;;;;;;;;5013009;28;20054;-53
2022/09/29 03:47:27;;;;;;;5.30;2.80;;;;;;;;;;5011479;28;20072;-52
2022/09/29 03:49:55;;;;;;;4.90;3.28;;;;;;;;;;5010266;28;20540;-53
2022/09/29 03:52:23;;;;;;;4.95;2.80;;;;;;;;;;5010706;28;20053;-52
2022/09/29 03:54:50;;;;;;;5.90;2.78;;;;;;;;;;5005503;28;20132;-53
2022/09/29 03:57:18;;;;;;;3.78;2.30;;;;;;;;;;5001427;28;20052;-52
2022/09/29 03:59:48;;;;;;;4.60;1.98;;;;;;;;;;5004780;28;20403;-53
2022/09/29 04:02:17;;;;;;;4.38;2.33;;;;;;;;;;4993095;28;20120;-53
2022/09/29 04:04:46;;;;;;;5.15;2.58;;;;;;;;;;4999843;28;20406;-53
2022/09/29 04:07:14;;;;;;;7.28;2.80;;;;;;;;;;4999353;28;20140;-53
2022/09/29 04:09:41;;;;;;;7.00;3.25;;;;;;;;;;4998887;28;20045;-53
2022/09/29 04:12:09;;;;;;;10.98;3.70;;;;;;;;;;5001123;28;20054;-53
2022/09/29 04:14:37;;;;;;;9.32;3.53;;;;;;;;;;4993231;28;20046;-51
2022/09/29 04:17:05;;;;;;;12.13;3.83;;;;;;;;;;5007375;28;20378;-53
2022/09/29 04:19:33;;;;;;;8.98;3.10;;;;;;;;;;4995848;28;20042;-53
2022/09/29 04:22:02;;;;;;;12.88;4.40;;;;;;;;;;4993345;28;20415;-55
2022/09/29 04:24:29;;;;;;;9.07;3.85;;;;;;;;;;5008175;28;20129;-54
2022/09/29 04:26:57;;;;;;;16.88;4.55;;;;;;;;;;5012558;28;20085;-53
2022/09/29 04:29:25;;;;;;;8.20;3.90;;;;;;;;;;5009041;28;20046;-51
2022/09/29 04:31:52;;;;;;;9.50;4.20;;;;;;;;;;4992880;28;20054;-51
2022/09/29 04:34:20;;;;;;;7.07;3.55;;;;;;;;;;4994264;28;20042;-53
2022/09/29 04:36:46;;;;;;;10.00;4.47;;;;;;;;;;5012047;28;20423;-50
2022/09/29 04:39:19;;;;;;;8.05;3.53;;;;;;;;;;4999248;28;20060;-52
2022/09/29 04:41:46;;;;;;;7.35;3.63;;;;;;;;;;5009973;28;20136;-54
2022/09/29 04:44:13;;;;;;;5.07;2.50;;;;;;;;;;5012191;28;20042;-55
2022/09/29 04:46:41;;;;;;;5.40;2.65;;;;;;;;;;5011147;28;20054;-54
2022/09/29 04:49:08;;;;;;;4.35;2.20;;;;;;;;;;5001302;28;20085;-54
2022/09/29 04:51:36;;;;;;;3.42;2.20;;;;;;;;;;4995960;28;20657;-53
2022/09/29 04:54:02;;;;;;;4.55;2.50;;;;;;;;;;5002765;28;20129;-51
2022/09/29 04:56:30;;;;;;;5.78;2.80;;;;;;;;;;5004349;28;20050;-50
2022/09/29 04:58:58;;;;;;;6.65;2.85;;;;;;;;;;5009581;28;20157;-51
2022/09/29 05:01:26;;;;;;;5.38;2.38;;;;;;;;;;4993084;28;20065;-51
2022/09/29 05:03:53;;;;;;;5.30;2.90;;;;;;;;;;4992427;28;20062;-50
2022/09/29 05:06:20;;;;;;;5.82;2.90;;;;;;;;;;4992702;28;20497;-50
2022/09/29 05:08:48;;;;;;;7.93;3.47;;;;;;;;;;4993006;28;20145;-50
2022/09/29 05:11:15;;;;;;;5.38;2.75;;;;;;;;;;5006078;28;20133;-54
2022/09/29 05:13:44;;;;;;;6.25;3.33;;;;;;;;;;4992793;28;20445;-53
2022/09/29 05:16:10;;;;;;;6.13;3.33;;;;;;;;;;5009391;28;20045;-53
2022/09/29 05:18:36;;;;;;;4.95;2.40;;;;;;;;;;5002527;28;20475;-50
2022/09/29 05:21:04;;;;;;;3.67;2.40;;;;;;;;;;4992721;28;20077;-50
2022/09/29 05:23:32;;;;;;;5.60;3.20;;;;;;;;;;4992495;28;20466;-50
2022/09/29 05:26:03;;;;;;;5.97;3.58;;;;;;;;;;5003073;28;20125;-53
2022/09/29 05:28:31;;;;;;;5.60;2.70;;;;;;;;;;5015142;28;20060;-51
2022/09/29 05:31:02;;;;;;;8.32;3.13;;;;;;;;;;5000009;28;20068;-50
2022/09/29 05:33:29;;;;;;;6.25;3.53;;;;;;;;;;5004447;28;20077;-52
2022/09/29 05:35:57;;;;;;;8.00;3.50;;;;;;;;;;5014335;28;20124;-54
2022/09/29 05:38:25;;;;;;;9.05;3.83;;;;;;;;;;4996381;28;20073;-53
2022/09/29 05:40:51;;;;;;;10.25;4.35;;;;;;;;;;5008598;28;20144;-53
2022/09/29 05:43:18;;;;;;;10.95;4.13;;;;;;;;;;5011669;28;20451;-52
2022/09/29 05:45:45;;;;;;;7.40;3.58;;;;;;;;;;5004335;28;20148;-54
2022/09/29 05:48:17;;;;;;;5.82;3.40;;;;;;;;;;5002982;28;20060;-50
2022/09/29 05:50:45;;;;;;;7.18;3.63;;;;;;;;;;4995883;28;20050;-53
2022/09/29 05:53:12;;;;;;;5.78;3.63;;;;;;;;;;5001038;28;20509;-54
2022/09/29 05:55:40;;;;;;;5.75;2.95;;;;;;;;;;5000614;28;20108;-51
2022/09/29 05:58:07;;;;;;;6.40;3.95;;;;;;;;;;5007948;28;20046;-53
2022/09/29 06:00:35;;;;;;;10.40;3.00;;;;;;;;;;5000136;28;20116;-53
2022/09/29 06:03:01;;;;;;;9.25;4.07;;;;;;;;;;4995276;28;20056;-54
2022/09/29 06:05:34;;;;;;;8.32;3.33;;;;;;;;;;5008222;28;20133;-53
2022/09/29 06:08:02;;;;;;;10.35;3.60;;;;;;;;;;4999429;28;20101;-53
2022/09/29 06:10:30;;;;;;;7.90;3.22;;;;;;;;;;5007339;28;20660;-51
2022/09/29 06:12:57;;;;;;;8.60;3.78;;;;;;;;;;4995542;28;20060;-54
2022/09/29 06:15:24;;;;;;;7.60;3.15;;;;;;;;;;5010555;28;20145;-56
2022/09/29 06:17:55;;;;;;;4.80;2.90;;;;;;;;;;5000121;28;20050;-54
2022/09/29 06:20:24;;;;;;;9.35;2.60;;;;;;;;;;5004955;28;20049;-54
2022/09/29 06:22:52;;;;;;;6.13;3.15;;;;;;;;;;5006931;28;20058;-53
2022/09/29 06:25:19;;;;;;;6.53;3.20;;;;;;;;;;5014326;28;20051;-51
2022/09/29 06:27:47;;;;;;;7.18;3.53;;;;;;;;;;5010638;28;20124;-51
2022/09/29 06:30:15;;;;;;;7.75;3.17;;;;;;;;;;5003691;28;20041;-53
2022/09/29 06:32:43;;;;;;;10.32;3.80;;;;;;;;;;5014328;28;20132;-51
2022/09/29 06:37:57;;;;;;;6.32;3.50;;;;;;;;;;5010623;28;20485;-49
2022/09/29 06:40:26;;;;;;;5.82;3.38;;;;;;;;;;5001513;28;20054;-50
2022/09/29 06:42:54;;;;;;;8.15;3.53;;;;;;;;;;5000885;28;20054;-49
2022/09/29 06:45:23;;;;;;;9.52;3.42;;;;;;;;;;5003172;28;20050;-49
2022/09/29 06:47:50;;;;;;;9.75;3.88;;;;;;;;;;5008509;28;20058;-51
2022/09/29 06:50:16;;;;;;;6.88;3.70;;;;;;;;;;5004684;28;20052;-50
2022/09/29 06:52:44;;;;;;;6.43;3.10;;;;;;;;;;5008416;28;20459;-50
2022/09/29 06:55:11;;;;;;;5.32;2.85;;;;;;;;;;5010817;28;20052;-50
2022/09/29 06:57:39;;;;;;;11.38;4.47;;;;;;;;;;5008690;28;20060;-50
2022/09/29 07:00:06;;;;;;;7.45;3.85;;;;;;;;;;5010363;28;20597;-49
2022/09/29 07:02:34;;;;;;;6.70;3.80;;;;;;;;;;5005311;28;20126;-52
2022/09/29 07:05:00;;;;;;;7.63;3.50;;;;;;;;;;5013355;28;20370;-54
2022/09/29 07:07:28;;;;;;;12.75;3.70;;;;;;;;;;5006878;28;20061;-52
2022/09/29 07:09:56;;;;;;;10.95;3.05;;;;;;;;;;5013531;28;20056;-54
2022/09/29 07:12:29;;;;;;;7.07;3.30;;;;;;;;;;5004024;28;20467;-51
2022/09/29 07:14:56;;;;;;;5.85;3.25;;;;;;;;;;5012788;28;20501;-53
2022/09/29 07:17:23;;;;;;;5.68;3.05;;;;;;;;;;5010683;28;20133;-54
2022/09/29 07:19:53;;;;;;;6.22;3.00;;;;;;;;;;5008653;28;20125;-51
2022/09/29 07:22:19;;;;;;;5.50;2.80;;;;;;;;;;5010535;28;20050;-55
2022/09/29 07:24:46;;;;;;;6.20;3.10;;;;;;;;;;5010103;28;20485;-50
2022/09/29 07:27:13;;;;;;;6.28;3.08;;;;;;;;;;5009379;28;20140;-54
2022/09/29 07:29:42;;;;;;;5.75;2.42;;;;;;;;;;5013243;28;20121;-51
2022/09/29 07:32:08;;;;;;;5.00;3.17;;;;;;;;;;5013686;28;20060;-51
2022/09/29 07:34:36;;;;;;;7.25;2.67;;;;;;;;;;5007475;28;20136;-54
2022/09/29 07:37:03;;;;;;;7.70;3.17;;;;;;;;;;5013029;28;20046;-53
2022/09/29 07:39:31;;;;;;;7.90;3.50;;;;;;;;;;5003420;28;20049;-52
2022/09/29 07:41:57;;;;;;;4.40;2.85;;;;;;;;;;5013025;28;20068;-51
2022/09/29 07:44:24;;;;;;;7.03;3.50;;;;;;;;;;5011998;28;20372;-50
2022/09/29 07:46:51;;;;;;;5.65;2.83;;;;;;;;;;5012601;28;20052;-50
2022/09/29 07:49:19;;;;;;;10.10;3.47;;;;;;;;;;5008552;28;20058;-54
2022/09/29 07:51:46;;;;;;;6.45;2.88;;;;;;;;;;4995764;28;20061;-52
2022/09/29 07:54:13;;;;;;;5.20;2.80;;;;;;;;;;4997443;28;20129;-50
2022/09/29 07:56:41;;;;;;;5.18;2.85;;;;;;;;;;5007701;28;20064;-53
2022/09/29 07:59:07;;;;;;;5.30;3.08;;;;;;;;;;5011186;28;20394;-55
2022/09/29 08:01:34;;;;;;;4.93;2.80;;;;;;;;;;5012603;28;20046;-51
2022/09/29 08:04:02;;;;;;;5.45;2.88;;;;;;;;;;5012703;28;20057;-49
2022/09/29 08:06:28;;;;;;;5.50;2.78;;;;;;;;;;5005585;28;20168;-49
2022/09/29 08:08:56;;;;;;;4.72;2.70;;;;;;;;;;5012458;28;20057;-55
2022/09/29 08:11:22;;;;;;;8.80;3.17;;;;;;;;;;5008825;28;20430;-51
2022/09/29 08:13:53;;;;;;;6.22;2.67;;;;;;;;;;5003034;28;20344;-51
2022/09/29 08:16:20;;;;;;;4.88;2.47;;;;;;;;;;5006166;28;20081;-50
2022/09/29 08:18:49;;;;;;;7.05;2.83;;;;;;;;;;5010974;28;20085;-54
2022/09/29 08:21:21;;;;;;;5.60;3.00;;;;;;;;;;5003834;28;20056;-54
2022/09/29 08:23:49;;;;;;;6.10;2.60;;;;;;;;;;5011865;28;20050;-55
2022/09/29 08:26:18;;;;;;;10.55;5.05;;;;;;;;;;5005596;28;20050;-55
2022/09/29 08:28:45;;;;;;;3.97;2.60;;;;;;;;;;5010858;28;20386;-52
2022/09/29 08:31:23;;;;;;;3.92;2.65;;;;;;;;;;5002073;28;20897;-50
2022/09/29 08:33:50;;;;;;;4.05;2.50;;;;;;;;;;5007213;28;20049;-50
2022/09/29 08:36:23;;;;;;;4.18;2.42;;;;;;;;;;5009127;28;20060;-49
2022/09/29 08:38:52;;;;;;;6.93;2.58;;;;;;;;;;5009604;28;20064;-50
2022/09/29 08:41:32;;;;;;;5.50;2.42;;;;;;;;;;5005495;28;20447;-51
2022/09/29 08:44:03;;;;;;;5.72;1.98;;;;;;;;;;5007731;28;20077;-50
2022/09/29 08:46:31;;;;;;;4.22;1.83;;;;;;;;;;5004903;28;20060;-49
2022/09/29 08:49:03;;;;;;;4.18;1.92;;;;;;;;;;5009149;28;20052;-50
2022/09/29 08:51:34;;;;;;;4.20;2.35;;;;;;;;;;5009822;28;20137;-50
2022/09/29 08:54:06;;;;;;;4.13;2.80;;;;;;;;;;5004836;28;20097;-50
2022/09/29 08:56:42;;;;;;;4.45;2.65;;;;;;;;;;4997939;28;20047;-50
2022/09/29 08:59:12;;;;;;;3.35;2.08;;;;;;;;;;5001530;28;20049;-51
2022/09/29 09:01:46;;;;;;;4.10;2.00;;;;;;;;;;5006439;28;20057;-51
2022/09/29 09:04:29;;;;;;;3.13;1.80;;;;;;;;;;5010679;28;20458;-51
2022/09/29 09:07:02;;;;;;;3.70;2.40;;;;;;;;;;5010637;28;20060;-50
2022/09/29 09:09:40;;;;;;;5.00;2.10;;;;;;;;;;5013439;28;20054;-51
2022/09/29 09:12:24;;;;;;;5.13;1.73;;;;;;;;;;5010234;28;20050;-50
2022/09/29 09:15:05;;;;;;;6.93;2.17;;;;;;;;;;5009116;28;20050;-54
2022/09/29 09:17:41;;;;;;;8.73;2.63;;;;;;;;;;5013332;28;20467;-53
2022/09/29 09:20:14;;;;;;;6.75;1.98;;;;;;;;;;5013225;28;20478;-50
2022/09/29 09:22:48;;;;;;;6.90;2.00;;;;;;;;;;5011635;28;20061;-51
2022/09/29 09:25:28;;;;;;;5.55;2.10;;;;;;;;;;5013274;28;20042;-52
2022/09/29 09:28:01;;;;;;;6.13;2.33;;;;;;;;;;5013230;28;20062;-52
2022/09/29 09:30:33;;;;;;;3.38;1.98;;;;;;;;;;5009049;28;20156;-50
2022/09/29 09:33:02;;;;;;;4.40;2.10;;;;;;;;;;5011143;28;20046;-49
2022/09/29 09:35:34;;;;;;;4.10;1.92;;;;;;;;;;5012099;28;20141;-49
2022/09/29 09:38:11;;;;;;;4.60;2.30;;;;;;;;;;5009132;28;20111;-49
2022/09/29 09:40:40;;;;;;;8.82;2.92;;;;;;;;;;5010051;28;20069;-49
2022/09/29 09:43:11;;;;;;;4.30;1.77;;;;;;;;;;5007760;28;20053;-51
2022/09/29 09:45:39;;;;;;;2.83;1.80;;;;;;;;;;5003188;28;20476;-48
2022/09/29 09:48:07;;;;;;;4.43;1.90;;;;;;;;;;5013701;28;20061;-47
2022/09/29 09:50:41;;;;;;;7.00;2.25;;;;;;;;;;5003617;28;20050;-50
2022/09/29 09:53:13;;;;;;;7.22;2.08;;;;;;;;;;5012489;28;20046;-51
2022/09/29 09:55:40;;;;;;;4.93;1.50;;;;;;;;;;5011497;28;20057;-47
2022/09/29 09:58:20;;;;;;;9.25;2.03;;;;;;;;;;5013085;28;20060;-52
2022/09/29 10:00:49;;;;;;;2.88;1.83;;;;;;;;;;5008451;28;20046;-49
2022/09/29 10:03:17;;;;;;;3.10;1.77;;;;;;;;;;5004207;28;20054;-52
2022/09/29 10:05:45;;;;;;;7.10;2.55;;;;;;;;;;5011780;28;20530;-50
2022/09/29 10:08:16;;;;;;;4.72;2.10;;;;;;;;;;5008841;28;20137;-49
2022/09/29 10:10:43;;;;;;;2.88;1.70;;;;;;;;;;5012465;28;20136;-49
2022/09/29 10:13:12;;;;;;;5.25;2.00;;;;;;;;;;5007861;28;20056;-49
2022/09/29 10:15:43;;;;;;;13.57;2.00;;;;;;;;;;5011788;28;20048;-48
2022/09/29 10:18:13;;;;;;;4.25;2.40;;;;;;;;;;5002463;28;20050;-47
2022/09/29 10:20:40;;;;;;;7.25;2.20;;;;;;;;;;5010955;28;20054;-48
2022/09/29 10:23:24;;;;;;;6.93;2.40;;;;;;;;;;5011107;28;20108;-48
2022/09/29 10:25:57;;;;;;;3.65;2.28;;;;;;;;;;5004201;28;20049;-48
2022/09/29 10:28:24;;;;;;;3.38;1.92;;;;;;;;;;5009634;28;20052;-48
2022/09/29 10:30:52;;;;;;;5.40;2.05;;;;;;;;;;5008419;28;20134;-49
2022/09/29 10:33:22;;;;;;;3.67;1.95;;;;;;;;;;5008479;28;20081;-49
2022/09/29 10:35:51;;;;;;;5.43;2.30;;;;;;;;;;5005652;28;20350;-50
2022/09/29 10:38:23;;;;;;;4.90;2.15;;;;;;;;;;5011598;28;20054;-48
2022/09/29 10:40:56;;;;;;;5.00;2.42;;;;;;;;;;5008931;28;20133;-47
2022/09/29 10:43:25;;;;;;;6.05;2.38;;;;;;;;;;5012592;28;20081;-47
2022/09/29 10:45:57;;;;;;;4.47;2.13;;;;;;;;;;5013874;28;20045;-47
2022/09/29 10:48:25;;;;;;;4.85;2.10;;;;;;;;;;5008328;28;20053;-47
2022/09/29 10:50:53;;;;;;;3.90;2.10;;;;;;;;;;5013385;28;20049;-51
2022/09/29 10:53:24;;;;;;;9.52;2.15;;;;;;;;;;5013285;28;20386;-50
2022/09/29 10:55:52;;;;;;;8.35;2.40;;;;;;;;;;5013681;28;20359;-48
2022/09/29 10:58:24;;;;;;;10.00;3.00;;;;;;;;;;5012751;28;20050;-49
2022/09/29 11:01:06;;;;;;;4.88;2.10;;;;;;;;;;5006580;28;20755;-48
2022/09/29 11:03:33;;;;;;;12.95;2.80;;;;;;;;;;5012372;28;20053;-48
2022/09/29 11:06:02;;;;;;;4.35;2.58;;;;;;;;;;5009154;28;20050;-48
2022/09/29 11:08:28;;;;;;;5.78;2.30;;;;;;;;;;5003003;28;20067;-48
2022/09/29 11:11:03;;;;;;;5.10;2.47;;;;;;;;;;4999737;28;20050;-48
2022/09/29 11:13:35;;;;;;;4.40;2.05;;;;;;;;;;5010678;28;20053;-50
2022/09/29 11:16:06;;;;;;;8.55;1.88;;;;;;;;;;5012573;28;20359;-48
2022/09/29 11:18:35;;;;;;;4.43;2.30;;;;;;;;;;5010204;28;20064;-48
2022/09/29 11:21:04;;;;;;;4.93;2.03;;;;;;;;;;5011448;28;20058;-47
2022/09/29 11:23:34;;;;;;;6.57;2.13;;;;;;;;;;5012702;28;20056;-46
2022/09/29 11:26:28;;;;;;;3.97;1.80;;;;;;;;;;5006886;28;20045;-46
2022/09/29 11:29:10;;;;;;;10.10;2.53;;;;;;;;;;5011504;28;20064;-45
2022/09/29 11:31:40;;;;;;;8.75;2.08;;;;;;;;;;5004349;28;20085;-46
2022/09/29 11:34:14;;;;;;;8.35;2.30;;;;;;;;;;5012724;28;20062;-49
2022/09/29 11:36:45;;;;;;;3.38;1.90;;;;;;;;;;5003706;28;20049;-49
2022/09/29 11:39:20;;;;;;;3.70;2.25;;;;;;;;;;5011258;28;20059;-49
2022/09/29 11:41:57;;;;;;;4.90;2.22;;;;;;;;;;5008619;28;20050;-49
2022/09/29 11:44:32;;;;;;;2.60;1.65;;;;;;;;;;5004821;28;20368;-50
2022/09/29 11:47:03;;;;;;;4.35;1.92;;;;;;;;;;5012602;28;20374;-49
2022/09/29 11:49:54;;;;;;;5.47;2.03;;;;;;;;;;5009847;28;20053;-49
2022/09/29 11:52:33;;;;;;;4.88;2.15;;;;;;;;;;5010317;28;20062;-50
2022/09/29 11:55:10;;;;;;;6.03;2.90;;;;;;;;;;5008365;28;20129;-49
2022/09/29 11:57:46;;;;;;;6.65;2.28;;;;;;;;;;5005418;28;20471;-49
2022/09/29 12:00:14;;;;;;;6.93;2.20;;;;;;;;;;5009419;28;20730;-50
2022/09/29 12:03:02;;;;;;;6.07;2.30;;;;;;;;;;5007790;28;20046;-49
2022/09/29 12:05:35;;;;;;;3.33;2.13;;;;;;;;;;5009268;28;20060;-49
2022/09/29 12:08:07;;;;;;;6.50;2.30;;;;;;;;;;5009710;28;20050;-50
2022/09/29 12:10:46;;;;;;;3.78;1.58;;;;;;;;;;5008222;28;20565;-50
2022/09/29 12:13:19;;;;;;;4.35;2.15;;;;;;;;;;5003719;28;20050;-51
2022/09/29 12:15:52;;;;;;;3.35;2.10;;;;;;;;;;5008979;28;20050;-49
2022/09/29 12:18:20;;;;;;;3.42;2.20;;;;;;;;;;5010280;28;20050;-53
2022/09/29 12:20:50;;;;;;;4.38;2.42;;;;;;;;;;5008758;28;20054;-54
2022/09/29 12:23:18;;;;;;;4.35;2.08;;;;;;;;;;5011789;28;20050;-52
2022/09/29 12:25:51;;;;;;;3.17;1.80;;;;;;;;;;5009315;28;20055;-54
2022/09/29 12:28:21;;;;;;;3.20;1.63;;;;;;;;;;5004502;28;20137;-55
2022/09/29 12:30:50;;;;;;;4.80;1.80;;;;;;;;;;5007093;28;20049;-50
2022/09/29 12:33:22;;;;;;;3.83;1.40;;;;;;;;;;5006521;28;20056;-51
2022/09/29 12:35:52;;;;;;;3.47;1.48;;;;;;;;;;5012854;28;20049;-53
2022/09/29 12:38:22;;;;;;;4.65;2.72;;;;;;;;;;5003420;28;20056;-51
2022/09/29 12:41:02;;;;;;;6.03;2.67;;;;;;;;;;5014094;28;20050;-50
2022/09/29 12:43:32;;;;;;;4.82;2.30;;;;;;;;;;5013869;28;20049;-50
2022/09/29 12:46:00;;;;;;;4.15;2.70;;;;;;;;;;5013267;28;20046;-49
2022/09/29 12:48:39;;;;;;;4.68;3.22;;;;;;;;;;5013600;28;20432;-52
2022/09/29 12:51:11;;;;;;;4.35;2.72;;;;;;;;;;5012707;28;20069;-49
2022/09/29 12:53:39;;;;;;;4.13;2.90;;;;;;;;;;5013309;28;20052;-52
2022/09/29 12:56:09;;;;;;;5.85;2.95;;;;;;;;;;5014429;28;20050;-49
2022/09/29 12:58:40;;;;;;;4.07;2.35;;;;;;;;;;5013707;28;20060;-49
2022/09/29 13:01:20;;;;;;;7.10;2.97;;;;;;;;;;5015522;28;20046;-49
2022/09/29 13:04:10;;;;;;;3.60;2.30;;;;;;;;;;5008189;28;20056;-49
2022/09/29 13:06:55;;;;;;;4.63;2.00;;;;;;;;;;5015222;28;20056;-49
2022/09/29 13:09:29;;;;;;;5.10;2.20;;;;;;;;;;5007367;28;20071;-48
2022/09/29 13:12:11;;;;;;;6.18;2.00;;;;;;;;;;5012301;28;20530;-47
2022/09/29 13:14:45;;;;;;;5.53;2.45;;;;;;;;;;5010952;28;20050;-49
2022/09/29 13:17:24;;;;;;;4.32;2.20;;;;;;;;;;5012476;28;20057;-48
2022/09/29 13:20:07;;;;;;;10.75;2.80;;;;;;;;;;5015987;28;20046;-48
2022/09/29 13:22:52;;;;;;;5.35;2.30;;;;;;;;;;5001956;28;20374;-47
2022/09/29 13:25:24;;;;;;;7.63;2.17;;;;;;;;;;5000251;28;20051;-46
2022/09/29 13:27:51;;;;;;;6.93;2.60;;;;;;;;;;5014938;28;20048;-47
2022/09/29 13:30:19;;;;;;;4.35;2.15;;;;;;;;;;5006037;28;20375;-53
2022/09/29 13:32:47;;;;;;;7.75;2.20;;;;;;;;;;5014904;28;20064;-50
2022/09/29 13:35:17;;;;;;;5.55;2.13;;;;;;;;;;5014679;28;20052;-50
2022/09/29 13:37:50;;;;;;;3.20;1.88;;;;;;;;;;5014378;28;20081;-50
2022/09/29 13:40:21;;;;;;;4.45;1.83;;;;;;;;;;5007028;28;20379;-52
2022/09/29 13:42:50;;;;;;;4.00;1.88;;;;;;;;;;5009270;28;20050;-51
2022/09/29 13:45:33;;;;;;;4.55;1.90;;;;;;;;;;5013138;28;20041;-51
2022/09/29 13:48:01;;;;;;;2.95;1.48;;;;;;;;;;4996656;28;20085;-53
2022/09/29 13:50:43;;;;;;;3.47;1.58;;;;;;;;;;5014474;28;20549;-53
2022/09/29 13:53:27;;;;;;;2.30;1.20;;;;;;;;;;5013567;28;20065;-50
2022/09/29 13:55:54;;;;;;;8.25;1.77;;;;;;;;;;5011560;28;20046;-51
2022/09/29 13:58:22;;;;;;;4.43;1.50;;;;;;;;;;5004817;28;20072;-49
2022/09/29 14:00:50;;;;;;;6.88;1.88;;;;;;;;;;5005115;28;20049;-51
2022/09/29 14:03:27;;;;;;;4.30;1.42;;;;;;;;;;5000641;28;20050;-51
2022/09/29 14:06:03;;;;;;;6.28;1.67;;;;;;;;;;5005398;28;20065;-51
2022/09/29 14:08:38;;;;;;;12.70;2.17;;;;;;;;;;5003392;28;20046;-54
2022/09/29 14:11:11;;;;;;;4.40;1.65;;;;;;;;;;5011860;28;20089;-54
2022/09/29 14:13:41;;;;;;;13.52;2.15;;;;;;;;;;5011496;28;20049;-48
2022/09/29 14:16:16;;;;;;;4.03;1.70;;;;;;;;;;5008627;28;20100;-50
2022/09/29 14:18:47;;;;;;;2.45;1.50;;;;;;;;;;5005194;28;20064;-48
2022/09/29 14:21:34;;;;;;;4.68;1.75;;;;;;;;;;5014125;28;20059;-50
2022/09/29 14:24:02;;;;;;;8.70;2.47;;;;;;;;;;5013243;28;20054;-54
2022/09/29 14:26:46;;;;;;;3.95;1.90;;;;;;;;;;5012615;28;20064;-53
2022/09/29 14:29:18;;;;;;;8.98;2.38;;;;;;;;;;5005097;28;20069;-55
2022/09/29 14:31:51;;;;;;;5.35;2.00;;;;;;;;;;5011336;28;20054;-54
2022/09/29 14:34:19;;;;;;;5.68;1.70;;;;;;;;;;5007276;28;20042;-50
2022/09/29 14:36:48;;;;;;;5.18;2.17;;;;;;;;;;5005092;28;20107;-52
2022/09/29 14:39:17;;;;;;;7.95;2.65;;;;;;;;;;5002055;28;20470;-52
2022/09/29 14:41:47;;;;;;;5.68;2.88;;;;;;;;;;5002169;28;20050;-50
2022/09/29 14:44:19;;;;;;;7.03;2.20;;;;;;;;;;5011713;28;20057;-49
2022/09/29 14:53:08;;;;;;;4.88;2.35;;;;;;;;;;5013694;28;20053;-53
2022/09/29 14:55:41;;;;;;;8.32;2.92;;;;;;;;;;5012305;28;20137;-53
2022/09/29 14:58:20;;;;;;;4.15;2.72;;;;;;;;;;5001803;28;20470;-54
2022/09/29 15:00:55;;;;;;;5.43;2.90;;;;;;;;;;4996359;28;20718;-53
2022/09/29 15:03:24;;;;;;;6.53;2.65;;;;;;;;;;5001204;28;20477;-55
2022/09/29 15:06:03;;;;;;;4.03;1.95;;;;;;;;;;5010517;28;20561;-51
2022/09/29 15:08:34;;;;;;;6.57;2.45;;;;;;;;;;5011724;28;20062;-56
2022/09/29 15:11:02;;;;;;;5.18;2.40;;;;;;;;;;5008332;28;20115;-55